Time;durP1;ratioP1;P1;durP2;ratioP2;P2;SDS_P1;SDS_P2;PMS_P1;PMS_P2;Temp;Humidity;BMP_temperature;BMP_pressure;BME280_temperature;BME280_humidity;BME280_pressure;Samples;Min_cycle;Max_cycle;Signal;HPM_P1;HPM_P2
2022/08/23 00:01:21;;;;;;;27.30;5.10;;;;;;;20.65;57.16;99323.95;109312;1274;22445;-69
2022/08/23 00:03:50;;;;;;;16.70;4.60;;;;;;;20.63;57.08;99319.69;109302;1274;22497;-69
2022/08/23 00:06:17;;;;;;;17.30;5.60;;;;;;;20.63;57.02;99325.15;109246;1276;22431;-69
2022/08/23 00:08:44;;;;;;;17.60;5.30;;;;;;;20.63;56.77;99327.59;109188;1274;138194;-69
2022/08/23 00:11:34;;;;;;;17.00;5.50;;;;;;;20.64;56.74;99327.01;109197;1275;23375;-70
2022/08/23 00:14:07;;;;;;;11.80;4.30;;;;;;;20.66;56.71;99325.35;109173;1276;138923;-67
2022/08/23 00:16:34;;;;;;;14.60;4.60;;;;;;;20.66;56.66;99327.33;109289;1275;23172;-67
2022/08/23 00:19:04;;;;;;;18.00;4.50;;;;;;;20.66;56.54;99325.84;109309;1273;23055;-67
2022/08/23 00:21:31;;;;;;;24.40;5.30;;;;;;;20.66;56.43;99330.42;109220;1274;138771;-70
2022/08/23 00:23:58;;;;;;;16.10;5.60;;;;;;;20.67;56.35;99330.71;109189;1274;23142;-69
2022/08/23 00:26:24;;;;;;;16.70;4.60;;;;;;;20.67;56.26;99332.45;109222;1274;137562;-69
2022/08/23 00:28:51;;;;;;;16.50;4.20;;;;;;;20.67;56.28;99331.02;109364;1274;23317;-69
2022/08/23 00:31:18;;;;;;;16.20;4.40;;;;;;;20.66;56.28;99333.10;109223;1274;22415;-69
2022/08/23 00:33:45;;;;;;;13.20;4.10;;;;;;;20.65;56.24;99334.30;109243;1273;137583;-69
2022/08/23 00:36:12;;;;;;;12.50;4.60;;;;;;;20.63;56.17;99337.56;109049;1275;22459;-68
2022/08/23 00:38:39;;;;;;;17.80;4.70;;;;;;;20.63;56.01;99336.05;109226;1274;138473;-69
2022/08/23 00:41:06;;;;;;;14.70;4.90;;;;;;;20.62;55.82;99336.67;109218;1277;22466;-69
2022/08/23 00:49:40;;;;;;;12.90;4.30;;;;;;;20.63;55.68;99344.90;108799;1277;139549;-69
2022/08/23 00:52:21;;;;;;;17.90;4.90;;;;;;;20.62;55.64;99345.77;108707;1279;22449;-69
2022/08/23 00:54:48;;;;;;;13.40;4.60;;;;;;;20.61;55.57;99348.23;108761;1277;23384;-69
2022/08/23 00:57:15;;;;;;;21.20;5.10;;;;;;;20.60;55.57;99347.55;108570;1279;137559;-69
2022/08/23 00:59:42;;;;;;;15.50;4.70;;;;;;;20.59;55.60;99347.03;108922;1277;22491;-69
2022/08/23 01:02:08;;;;;;;22.80;4.90;;;;;;;20.58;55.48;99344.95;108824;1279;138089;-69
2022/08/23 01:04:38;;;;;;;16.80;4.90;;;;;;;20.57;55.44;99347.32;108954;1279;23255;-71
2022/08/23 01:07:28;;;;;;;18.90;4.40;;;;;;;20.56;55.32;99344.46;108914;1278;22479;-71
2022/08/23 01:09:56;;;;;;;17.80;4.40;;;;;;;20.55;55.26;99339.41;108889;1279;22536;-71
2022/08/23 01:12:27;;;;;;;14.80;4.00;;;;;;;20.54;55.17;99344.75;108613;1280;23527;-71
2022/08/23 01:15:05;;;;;;;15.80;4.50;;;;;;;20.54;55.08;99345.30;108531;1279;138631;-71
2022/08/23 01:17:41;;;;;;;16.80;5.20;;;;;;;20.53;54.88;99346.93;108860;1279;23452;-68
2022/08/23 01:20:12;;;;;;;16.10;4.20;;;;;;;20.54;54.80;99345.92;108553;1277;138046;-71
2022/08/23 01:22:49;;;;;;;13.10;4.40;;;;;;;20.53;54.72;99340.13;108573;1281;22503;-70
2022/08/23 01:25:17;;;;;;;;;;;;;;;20.53;54.67;99343.38;108875;1274;22727;-70
2022/08/23 01:27:44;;;;;;;14.80;4.00;;;;;;;20.53;54.65;99344.95;109169;1274;124544;-70
2022/08/23 01:30:17;;;;;;;14.60;4.60;;;;;;;20.52;54.73;99348.36;109323;1274;23417;-69
2022/08/23 01:32:49;;;;;;;12.00;4.00;;;;;;;20.51;54.72;99345.63;109152;1274;140342;-69
2022/08/23 01:35:17;;;;;;;13.70;5.10;;;;;;;20.50;54.58;99350.48;109253;1273;23143;-69
2022/08/23 01:37:50;;;;;;;16.40;4.20;;;;;;;20.49;54.53;99349.49;109176;1276;137866;-69
2022/08/23 01:40:16;;;;;;;16.00;5.10;;;;;;;20.48;54.34;99352.56;109195;1274;22690;-69
2022/08/23 01:42:43;;;;;;;16.70;4.70;;;;;;;20.47;54.44;99353.09;109244;1273;22437;-69
2022/08/23 01:45:12;;;;;;;11.50;3.40;;;;;;;20.46;54.45;99358.75;109091;1274;138471;-69
2022/08/23 01:47:39;;;;;;;21.30;4.80;;;;;;;20.46;54.40;99359.92;109345;1274;22395;-69
2022/08/23 01:50:07;;;;;;;17.50;5.30;;;;;;;20.44;54.34;99359.92;109133;1274;137688;-69
2022/08/23 01:52:35;;;;;;;19.90;4.60;;;;;;;20.43;54.31;99357.11;109210;1276;22541;-70
2022/08/23 01:55:03;;;;;;;22.50;4.10;;;;;;;20.42;54.25;99355.71;109265;1274;22495;-69
2022/08/23 01:57:31;;;;;;;16.50;4.40;;;;;;;20.43;54.17;99356.59;109229;1274;138487;-70
2022/08/23 02:00:00;;;;;;;14.60;4.00;;;;;;;20.42;54.08;99359.81;109282;1276;22443;-69
2022/08/23 02:02:28;;;;;;;11.90;4.10;;;;;;;20.43;54.05;99358.02;109217;1274;138475;-69
2022/08/23 02:04:54;;;;;;;18.00;4.40;;;;;;;20.43;54.10;99359.30;109297;1274;23405;-69
2022/08/23 02:07:28;;;;;;;15.40;4.10;;;;;;;20.43;53.94;99355.32;109104;1274;139984;-68
2022/08/23 02:09:55;;;;;;;11.10;4.60;;;;;;;20.42;53.90;99356.17;109292;1274;22437;-70
2022/08/23 02:12:22;;;;;;;10.80;3.90;;;;;;;20.42;53.87;99359.10;109306;1274;23201;-70
2022/08/23 02:14:52;;;;;;;10.80;3.80;;;;;;;20.42;53.73;99359.48;109125;1274;139628;-69
2022/08/23 02:17:22;;;;;;;16.90;4.50;;;;;;;20.42;53.77;99364.64;109350;1274;22621;-70
2022/08/23 02:19:49;;;;;;;14.50;4.70;;;;;;;20.42;53.76;99366.04;109183;1274;139361;-69
2022/08/23 02:22:17;;;;;;;19.10;4.00;;;;;;;20.41;53.59;99362.39;109343;1274;22360;-69
2022/08/23 02:24:44;;;;;;;29.10;4.90;;;;;;;20.42;53.57;99361.38;109212;1274;22428;-70
2022/08/23 02:27:14;;;;;;;10.60;4.60;;;;;;;20.41;53.43;99361.98;109121;1277;139608;-70
2022/08/23 02:29:43;;;;;;;18.90;4.40;;;;;;;20.41;53.51;99361.02;109270;1274;23353;-69
2022/08/23 02:32:12;;;;;;;13.80;3.90;;;;;;;20.40;53.47;99361.44;109102;1274;137637;-69
2022/08/23 02:34:41;;;;;;;13.90;4.50;;;;;;;20.38;53.34;99362.05;109249;1276;22486;-69
2022/08/23 02:37:08;;;;;;;18.80;3.80;;;;;;;20.36;53.47;99360.48;109154;1274;22419;-69
2022/08/23 02:39:35;;;;;;;24.50;5.20;;;;;;;20.35;53.46;99361.56;109207;1274;137763;-69
2022/08/23 02:42:05;;;;;;;13.10;4.30;;;;;;;20.34;53.10;99366.38;109275;1274;22516;-69
2022/08/23 02:44:33;;;;;;;17.10;4.80;;;;;;;20.33;52.99;99366.02;109066;1276;137954;-69
2022/08/23 02:47:01;;;;;;;20.20;4.40;;;;;;;20.33;52.93;99367.58;109311;1274;23650;-69
2022/08/23 02:49:28;;;;;;;14.40;4.50;;;;;;;20.33;53.03;99372.20;109150;1274;138912;-70
2022/08/23 02:51:56;;;;;;;18.30;4.80;;;;;;;20.33;52.94;99375.77;109298;1274;22395;-70
2022/08/23 02:54:23;;;;;;;9.80;4.30;;;;;;;20.33;52.76;99376.14;109174;1276;22414;-69
2022/08/23 02:56:51;;;;;;;13.20;4.10;;;;;;;20.33;52.60;99376.21;109263;1274;138161;-70
2022/08/23 02:59:18;;;;;;;16.40;4.10;;;;;;;20.33;52.61;99383.80;109332;1274;22653;-69
2022/08/23 03:01:46;;;;;;;14.90;4.30;;;;;;;20.32;52.39;99383.86;109144;1274;139845;-70
2022/08/23 03:04:29;;;;;;;9.50;4.00;;;;;;;20.32;52.45;99389.85;109292;1274;22467;-69
2022/08/23 03:06:56;;;;;;;12.30;3.90;;;;;;;20.32;52.37;99393.39;109369;1274;23469;-69
2022/08/23 03:09:24;;;;;;;13.20;3.70;;;;;;;20.33;52.35;99396.20;109186;1274;139150;-69
2022/08/23 03:11:50;;;;;;;14.10;3.80;;;;;;;20.33;52.43;99390.59;109363;1274;22455;-69
2022/08/23 03:14:18;;;;;;;14.90;4.20;;;;;;;20.32;52.18;99392.55;109094;1274;138987;-69
2022/08/23 03:16:45;;;;;;;22.10;4.10;;;;;;;20.31;52.08;99395.73;109227;1274;22469;-70
2022/08/23 03:19:12;;;;;;;20.20;4.30;;;;;;;20.32;51.98;99404.34;109299;1274;23497;-69
2022/08/23 03:21:39;;;;;;;25.10;5.00;;;;;;;20.33;51.95;99406.27;109239;1274;138240;-69
2022/08/23 03:24:10;;;;;;;12.00;4.20;;;;;;;20.34;51.84;99406.77;109240;1274;22438;-69
2022/08/23 03:26:39;;;;;;;16.50;4.40;;;;;;;20.35;51.91;99404.17;109258;1274;137794;-69
2022/08/23 03:29:06;;;;;;;9.60;4.30;;;;;;;20.35;51.89;99405.55;109263;1274;22479;-69
2022/08/23 03:31:42;;;;;;;18.00;3.90;;;;;;;20.34;51.90;99405.75;108990;1277;138759;-68
2022/08/23 03:34:10;;;;;;;16.30;4.50;;;;;;;20.34;51.95;99405.50;109154;1274;22542;-69
2022/08/23 03:36:37;;;;;;;16.80;4.90;;;;;;;20.34;51.83;99404.23;109281;1274;22450;-69
2022/08/23 03:39:05;;;;;;;17.10;4.70;;;;;;;20.33;51.83;99405.02;109227;1274;137977;-69
2022/08/23 03:41:31;;;;;;;16.70;4.10;;;;;;;20.33;51.92;99410.23;109139;1274;22413;-67
2022/08/23 03:43:59;;;;;;;20.70;5.30;;;;;;;20.33;52.22;99414.27;109201;1274;138151;-69
2022/08/23 03:46:26;;;;;;;20.70;4.00;;;;;;;20.34;52.11;99415.79;109142;1276;22256;-59
2022/08/23 03:49:00;;;;;;;17.10;4.20;;;;;;;20.34;52.14;99416.64;109386;1274;22427;-59
2022/08/23 03:51:30;;;;;;;13.80;5.10;;;;;;;20.33;51.96;99423.67;109102;1274;138013;-59
2022/08/23 03:53:57;;;;;;;12.90;4.00;;;;;;;20.34;52.15;99423.52;109275;1274;22460;-59
2022/08/23 03:56:30;;;;;;;22.50;4.90;;;;;;;20.34;52.23;99430.26;109089;1274;137664;-59
2022/08/23 03:58:59;;;;;;;18.00;4.50;;;;;;;20.35;52.09;99436.16;109300;1274;22455;-59
2022/08/23 04:01:26;;;;;;;25.40;5.60;;;;;;;20.37;52.01;99439.34;109078;1274;137538;-60
2022/08/23 04:03:58;;;;;;;17.80;5.20;;;;;;;20.38;52.23;99448.17;109269;1274;23547;-59
2022/08/23 04:06:26;;;;;;;19.20;4.50;;;;;;;20.40;52.24;99450.23;109117;1276;22477;-59
2022/08/23 04:08:53;;;;;;;17.40;3.70;;;;;;;20.41;52.14;99446.81;108989;1276;138176;-59
2022/08/23 04:11:21;;;;;;;22.80;5.10;;;;;;;20.42;52.12;99445.93;109173;1275;22268;-59
2022/08/23 04:13:53;;;;;;;29.80;4.20;;;;;;;20.43;52.11;99446.45;109177;1274;138639;-59
2022/08/23 04:16:20;;;;;;;15.50;4.50;;;;;;;20.44;51.99;99447.15;109201;1274;22478;-59
2022/08/23 04:18:48;;;;;;;21.50;4.80;;;;;;;20.47;52.01;99445.42;109219;1274;23191;-59
2022/08/23 04:21:17;;;;;;;19.90;5.00;;;;;;;20.49;52.19;99450.02;109020;1274;139265;-57
2022/08/23 04:23:45;;;;;;;22.30;5.10;;;;;;;20.50;52.03;99448.00;109297;1274;23278;-58
2022/08/23 04:26:12;;;;;;;16.80;4.50;;;;;;;20.52;52.04;99453.48;109056;1274;138509;-61
2022/08/23 04:28:39;;;;;;;13.00;4.60;;;;;;;20.54;51.98;99453.20;109079;1274;22528;-58
2022/08/23 04:31:06;;;;;;;17.50;5.80;;;;;;;20.57;51.95;99457.05;109323;1274;22452;-58
2022/08/23 04:33:34;;;;;;;21.10;4.40;;;;;;;20.60;52.00;99457.83;109218;1274;139112;-58
2022/08/23 04:36:06;;;;;;;27.30;5.50;;;;;;;20.64;51.72;99458.17;109290;1273;22462;-58
2022/08/23 04:38:33;;;;;;;20.00;4.50;;;;;;;20.68;51.87;99455.34;109220;1274;138706;-58
2022/08/23 04:43:48;;;;;;;24.00;4.90;;;;;;;20.79;51.68;99455.83;109164;1274;138471;-58
2022/08/23 04:46:15;;;;;;;22.90;4.40;;;;;;;20.83;51.68;99457.84;109285;1274;22536;-58
2022/08/23 04:48:43;;;;;;;23.00;5.00;;;;;;;20.88;51.76;99455.59;109213;1276;22291;-57
2022/08/23 04:51:11;;;;;;;17.50;3.90;;;;;;;20.92;51.52;99456.48;108901;1274;138208;-57
2022/08/23 04:53:37;;;;;;;32.70;5.50;;;;;;;20.96;51.87;99460.95;109291;1274;22501;-58
2022/08/23 04:56:30;;;;;;;21.50;4.50;;;;;;;21.02;51.72;99464.93;109083;1274;138313;-60
2022/08/23 04:58:57;;;;;;;27.80;5.30;;;;;;;21.07;51.41;99466.02;109329;1276;22256;-60
2022/08/23 05:01:24;;;;;;;24.80;5.20;;;;;;;21.11;51.35;99467.08;109107;1276;139127;-65
2022/08/23 05:03:52;;;;;;;27.20;4.50;;;;;;;21.15;50.96;99469.30;109112;1274;22465;-61
2022/08/23 05:06:22;;;;;;;32.40;6.10;;;;;;;21.19;50.71;99466.52;109111;1274;22502;-60
2022/08/23 05:08:49;;;;;;;33.70;4.90;;;;;;;21.23;50.74;99467.83;109044;1276;138585;-60
2022/08/23 05:11:17;;;;;;;35.40;6.20;;;;;;;21.26;50.32;99468.16;109114;1273;23288;-58
2022/08/23 05:13:45;;;;;;;27.40;6.00;;;;;;;21.29;50.40;99472.00;109030;1274;138017;-59
2022/08/23 05:16:12;;;;;;;21.00;5.20;;;;;;;21.32;50.37;99474.02;109125;1273;22564;-58
2022/08/23 05:18:45;;;;;;;25.10;5.90;;;;;;;21.35;50.38;99479.00;109314;1274;22433;-58
2022/08/23 05:21:16;;;;;;;28.90;5.70;;;;;;;21.40;50.44;99483.31;109049;1274;138676;-59
2022/08/23 05:23:43;;;;;;;30.50;5.60;;;;;;;21.44;50.05;99483.11;109243;1274;23245;-60
2022/08/23 05:26:19;;;;;;;33.90;5.70;;;;;;;21.48;49.80;99485.13;109148;1274;138039;-58
2022/08/23 05:28:46;;;;;;;27.30;6.40;;;;;;;21.52;49.80;99486.43;109167;1274;22464;-58
2022/08/23 05:31:17;;;;;;;31.50;5.50;;;;;;;21.57;49.96;99484.73;109362;1274;23123;-60
2022/08/23 05:33:52;;;;;;;24.40;5.40;;;;;;;21.62;49.83;99488.60;109311;1274;23124;-60
2022/08/23 05:36:39;;;;;;;31.90;6.80;;;;;;;21.68;49.88;99490.78;109319;1274;22400;-60
2022/08/23 05:39:21;;;;;;;38.90;6.60;;;;;;;21.74;49.58;99488.81;109107;1277;137564;-60
2022/08/23 05:42:02;;;;;;;36.50;7.00;;;;;;;21.79;49.54;99494.49;109347;1273;23362;-60
2022/08/23 05:44:29;;;;;;;32.70;5.90;;;;;;;21.85;49.42;99489.80;109093;1274;138068;-60
2022/08/23 05:47:03;;;;;;;34.90;6.30;;;;;;;21.90;49.32;99490.25;109290;1274;22417;-60
2022/08/23 05:49:37;;;;;;;41.50;8.50;;;;;;;21.93;49.27;99496.58;109179;1274;137652;-59
2022/08/23 05:52:12;;;;;;;43.50;7.10;;;;;;;21.98;49.39;99495.98;109322;1274;22376;-59
2022/08/23 05:54:40;;;;;;;34.10;6.20;;;;;;;22.04;49.53;99495.88;109278;1276;22584;-60
2022/08/23 05:57:43;;;;;;;31.30;6.60;;;;;;;22.11;49.07;99504.87;108686;1277;137383;-58
2022/08/23 06:00:14;;;;;;;46.60;7.60;;;;;;;22.14;49.05;99510.54;109086;1276;22463;-57
2022/08/23 06:02:54;;;;;;;43.10;6.50;;;;;;;22.17;49.13;99508.93;109114;1274;137637;-60
2022/08/23 06:05:21;;;;;;;55.20;8.10;;;;;;;22.20;48.97;99510.61;109070;1274;22458;-59
2022/08/23 06:07:48;;;;;;;44.80;7.30;;;;;;;22.22;48.85;99514.03;109040;1274;137870;-60
2022/08/23 06:10:19;;;;;;;31.50;7.10;;;;;;;22.25;48.49;99516.80;109316;1275;23353;-60
2022/08/23 06:12:51;;;;;;;42.90;7.20;;;;;;;22.26;48.72;99518.27;109154;1273;22464;-59
2022/08/23 06:15:18;;;;;;;72.10;9.40;;;;;;;22.27;48.94;99526.43;109157;1276;138282;-60
2022/08/23 06:17:45;;;;;;;49.80;8.70;;;;;;;22.30;48.79;99529.80;109276;1274;23321;-61
2022/08/23 06:20:14;;;;;;;35.90;6.50;;;;;;;22.32;48.85;99535.79;109014;1275;138446;-61
2022/08/23 06:23:00;;;;;;;46.20;7.20;;;;;;;22.37;49.01;99538.23;109301;1274;23180;-62
2022/08/23 06:25:27;;;;;;;36.60;8.30;;;;;;;22.39;49.10;99532.46;109098;1277;138862;-61
2022/08/23 06:28:05;;;;;;;45.70;10.10;;;;;;;22.44;48.90;99538.55;109160;1274;22480;-60
2022/08/23 06:30:32;;;;;;;47.80;8.10;;;;;;;22.49;48.95;99540.88;109229;1276;23275;-62
2022/08/23 06:33:19;;;;;;;49.80;7.40;;;;;;;22.54;48.51;99545.53;109067;1276;138852;-60
2022/08/23 06:36:12;;;;;;;54.00;8.00;;;;;;;22.59;48.72;99548.13;109151;1276;22462;-61
2022/08/23 06:39:11;;;;;;;53.10;8.80;;;;;;;22.67;48.88;99544.77;108911;1274;138443;-60
2022/08/23 06:42:02;;;;;;;38.80;8.10;;;;;;;22.74;48.92;99548.38;109204;1275;22512;-61
2022/08/23 06:44:44;;;;;;;53.60;7.20;;;;;;;22.80;49.07;99552.67;109174;1274;138639;-61
2022/08/23 06:47:15;;;;;;;54.10;8.60;;;;;;;22.85;49.51;99556.44;109256;1274;22582;-61
2022/08/23 06:49:45;;;;;;;42.40;8.10;;;;;;;22.92;49.52;99555.83;109080;1276;137894;-61
2022/08/23 06:52:53;;;;;;;56.20;8.00;;;;;;;23.01;48.81;99557.67;109229;1276;23320;-62
2022/08/23 06:55:35;;;;;;;59.00;8.80;;;;;;;23.10;48.27;99557.60;108962;1278;137641;-60
2022/08/23 06:58:18;;;;;;;55.10;9.10;;;;;;;23.16;48.49;99559.28;109174;1276;22467;-61
2022/08/23 07:01:28;;;;;;;64.40;14.80;;;;;;;23.23;48.27;99563.34;109233;1274;22232;-61
2022/08/23 07:04:18;;;;;;;51.60;8.90;;;;;;;23.33;48.08;99567.99;109297;1274;23635;-61
2022/08/23 07:07:21;;;;;;;60.80;9.60;;;;;;;23.43;48.17;99571.38;108967;1275;23066;-61
2022/08/23 07:09:48;;;;;;;54.40;9.20;;;;;;;23.52;47.47;99569.42;109189;1275;137375;-61
2022/08/23 07:12:18;;;;;;;56.90;9.60;;;;;;;23.59;47.19;99570.73;109178;1274;22468;-61
2022/08/23 07:14:45;;;;;;;69.80;11.70;;;;;;;23.67;46.65;99573.37;109023;1276;137556;-62
2022/08/23 07:17:12;;;;;;;61.60;11.10;;;;;;;23.72;45.93;99577.30;109040;1276;22445;-62
2022/08/23 07:19:42;;;;;;;59.70;9.70;;;;;;;23.78;46.29;99579.34;109076;1274;138386;-62
2022/08/23 07:22:09;;;;;;;55.40;9.50;;;;;;;23.83;46.32;99581.81;109290;1276;22974;-61
2022/08/23 07:24:36;;;;;;;59.60;12.40;;;;;;;23.89;46.21;99586.73;109327;1274;22475;-61
2022/08/23 07:27:05;;;;;;;59.50;11.50;;;;;;;23.97;46.19;99591.52;109089;1276;139321;-61
2022/08/23 07:29:35;;;;;;;82.30;11.40;;;;;;;24.05;45.80;99589.23;109236;1274;22276;-61
2022/08/23 07:32:02;;;;;;;84.90;13.20;;;;;;;24.11;45.47;99589.29;109125;1274;137834;-60
2022/08/23 07:34:29;;;;;;;89.90;11.40;;;;;;;24.15;45.49;99591.27;109305;1274;22543;-61
2022/08/23 07:36:56;;;;;;;62.70;11.50;;;;;;;24.19;45.54;99590.15;109337;1276;22499;-61
2022/08/23 07:39:25;;;;;;;65.60;13.20;;;;;;;24.23;45.41;99587.27;109180;1274;138763;-61
2022/08/23 07:41:52;;;;;;;70.90;9.90;;;;;;;24.26;45.35;99591.27;109200;1275;22600;-61
2022/08/23 07:44:19;;;;;;;58.60;11.50;;;;;;;24.30;45.83;99589.34;108991;1277;137640;-62
2022/08/23 07:46:52;;;;;;;68.00;9.90;;;;;;;24.36;46.23;99589.05;109169;1274;23230;-59
2022/08/23 07:49:19;;;;;;;58.50;12.10;;;;;;;24.42;46.10;99592.48;109142;1274;23184;-58
2022/08/23 07:51:48;;;;;;;69.70;11.50;;;;;;;24.47;45.80;99591.17;109099;1276;137761;-59
2022/08/23 07:54:17;;;;;;;52.50;11.20;;;;;;;24.53;45.36;99594.85;109337;1274;22427;-59
2022/08/23 07:57:04;;;;;;;68.60;11.60;;;;;;;24.58;45.27;99589.93;108978;1276;138518;-58
2022/08/23 07:59:48;;;;;;;82.40;12.20;;;;;;;24.64;45.41;99592.26;109212;1276;22533;-61
2022/08/23 08:02:44;;;;;;;72.30;10.90;;;;;;;24.71;45.95;99596.06;109092;1276;138141;-61
2022/08/23 08:05:18;;;;;;;66.30;11.20;;;;;;;24.79;45.09;99594.95;109032;1276;22559;-60
2022/08/23 08:07:48;;;;;;;83.70;13.60;;;;;;;24.85;44.52;99593.71;109216;1274;137974;-61
2022/08/23 08:12:45;;;;;;;72.90;12.20;;;;;;;24.98;43.82;99596.13;101685;1309;545007;-58
2022/08/23 08:15:17;;;;;;;87.60;13.20;;;;;;;24.99;43.43;99593.47;103638;1290;138999;-61
2022/08/23 08:17:46;;;;;;;83.10;12.60;;;;;;;25.03;43.53;99600.18;103913;1287;23068;-61
2022/08/23 08:20:18;;;;;;;91.50;14.10;;;;;;;25.06;43.23;99601.45;103746;1287;137985;-60
2022/08/23 08:22:49;;;;;;;73.10;11.40;;;;;;;25.10;43.42;99601.03;103910;1287;25405;-60
2022/08/23 08:25:44;;;;;;;85.80;12.80;;;;;;;25.15;43.51;99602.20;102820;1284;1296638;-60
2022/08/23 08:28:12;;;;;;;86.00;14.30;;;;;;;25.20;43.92;99600.86;104111;1287;22611;-60
2022/08/23 08:30:41;;;;;;;83.00;14.10;;;;;;;25.26;43.77;99598.71;103921;1287;22602;-60
2022/08/23 08:33:08;;;;;;;75.50;12.30;;;;;;;25.32;43.52;99602.00;104058;1284;137316;-60
2022/08/23 08:35:35;;;;;;;87.90;14.00;;;;;;;25.36;43.24;99602.45;104025;1287;23168;-60
2022/08/23 08:38:02;;;;;;;82.20;14.70;;;;;;;25.42;43.25;99606.41;104169;1285;137921;-60
2022/08/23 08:40:31;;;;;;;67.10;13.30;;;;;;;25.46;42.83;99605.91;104291;1287;24252;-59
2022/08/23 08:43:10;;;;;;;84.40;14.20;;;;;;;25.51;42.89;99606.20;108358;1284;22430;-59
2022/08/23 08:45:44;;;;;;;87.90;15.50;;;;;;;25.56;42.67;99603.88;108249;1284;137940;-59
2022/08/23 08:48:24;;;;;;;;;;;;;;;25.64;42.72;99605.19;108175;1287;22540;-59
2022/08/23 08:50:54;;;;;;;84.10;13.90;;;;;;;25.72;42.39;99605.70;108107;1287;123567;-59
2022/08/23 08:53:35;;;;;;;76.70;12.80;;;;;;;25.77;42.29;99611.67;108581;1281;22444;-60
2022/08/23 08:56:23;;;;;;;65.60;11.80;;;;;;;25.77;42.39;99610.41;108620;1281;137883;-59
2022/08/23 08:59:40;;;;;;;67.90;11.60;;;;;;;25.76;41.95;99611.17;108416;1282;22964;-60
2022/08/23 09:02:07;;;;;;;69.40;11.50;;;;;;;25.76;42.69;99615.06;108501;1281;137552;-60
2022/08/23 09:04:55;;;;;;;67.70;13.20;;;;;;;25.81;42.83;99612.98;108473;1280;22475;-60
2022/08/23 09:07:59;;;;;;;70.60;11.40;;;;;;;25.85;42.51;99613.33;108435;1282;22249;-59
2022/08/23 09:10:45;;;;;;;76.30;13.60;;;;;;;25.91;41.83;99617.09;108710;1283;22663;-60
2022/08/23 09:13:25;;;;;;;65.50;10.50;;;;;;;25.98;42.11;99617.27;108474;1281;22463;-59
2022/08/23 09:15:55;;;;;;;68.50;11.80;;;;;;;26.08;41.25;99612.04;108486;1283;23630;-59
2022/08/23 09:18:23;;;;;;;79.70;11.60;;;;;;;26.16;40.85;99618.77;108635;1283;22440;-60
2022/08/23 09:20:51;;;;;;;59.80;12.00;;;;;;;26.19;40.67;99617.73;108884;1277;137841;-60
2022/08/23 09:23:33;;;;;;;65.60;11.60;;;;;;;26.20;41.05;99621.67;109081;1277;22543;-60
2022/08/23 09:26:01;;;;;;;55.70;11.80;;;;;;;26.24;41.25;99628.31;108943;1277;138054;-59
2022/08/23 09:28:35;;;;;;;55.00;10.60;;;;;;;26.28;41.07;99629.13;109053;1277;22451;-60
2022/08/23 09:31:04;;;;;;;86.10;12.00;;;;;;;26.32;41.06;99623.20;109102;1277;22531;-60
2022/08/23 09:33:41;;;;;;;43.60;9.60;;;;;;;26.36;41.54;99623.70;108883;1277;138113;-60
2022/08/23 09:36:22;;;;;;;47.50;9.80;;;;;;;26.40;41.06;99624.45;106715;1278;22663;-59
2022/08/23 09:38:55;;;;;;;52.50;9.20;;;;;;;26.41;41.07;99624.61;104750;1278;137933;-59
2022/08/23 09:41:28;;;;;;;53.70;11.10;;;;;;;26.40;40.98;99626.52;109017;1277;23376;-59
2022/08/23 09:43:57;;;;;;;48.00;8.80;;;;;;;26.39;41.08;99626.19;108868;1279;138285;-59
2022/08/23 09:46:29;;;;;;;47.00;9.40;;;;;;;26.39;40.20;99627.54;108854;1279;22494;-59
2022/08/23 09:48:57;;;;;;;41.30;8.20;;;;;;;26.40;40.51;99626.61;108840;1279;22487;-59
2022/08/23 09:51:32;;;;;;;36.70;8.30;;;;;;;26.44;40.76;99620.05;108641;1279;139172;-59
2022/08/23 09:54:12;;;;;;;47.60;8.60;;;;;;;26.46;40.07;99625.14;108792;1279;22466;-59
2022/08/23 09:56:41;;;;;;;39.10;8.50;;;;;;;26.47;39.50;99624.92;108624;1279;138978;-59
2022/08/23 09:59:21;;;;;;;35.60;7.10;;;;;;;26.52;38.35;99622.98;108802;1280;22390;-59
2022/08/23 10:01:57;;;;;;;48.00;9.20;;;;;;;26.62;37.61;99624.03;108549;1279;141231;-59
2022/08/23 10:04:36;;;;;;;36.90;7.90;;;;;;;26.73;38.16;99622.05;108515;1281;22556;-59
2022/08/23 10:07:37;;;;;;;32.20;7.40;;;;;;;26.85;38.47;99617.60;108724;1279;22411;-59
2022/08/23 10:10:18;;;;;;;29.20;5.20;;;;;;;26.96;38.92;99622.38;108745;1279;22435;-60
2022/08/23 10:12:45;;;;;;;26.90;5.70;;;;;;;26.99;38.39;99619.80;109050;1276;22069;-59
2022/08/23 10:15:14;;;;;;;34.50;6.40;;;;;;;27.04;37.96;99623.42;108919;1277;138570;-59
2022/08/23 10:17:51;;;;;;;27.30;7.10;;;;;;;27.05;37.07;99623.45;108859;1277;22560;-59
2022/08/23 10:20:32;;;;;;;27.70;6.40;;;;;;;27.02;36.91;99625.77;108887;1277;137507;-59
2022/08/23 10:23:37;;;;;;;25.30;5.40;;;;;;;26.97;37.35;99625.92;108941;1277;22455;-58
2022/08/23 10:26:05;;;;;;;34.90;6.60;;;;;;;26.90;37.22;99623.17;109013;1278;138055;-58
2022/08/23 10:31:39;;;;;;;;;;;;;;;26.80;37.58;99630.45;109125;1277;139410;-60
2022/08/23 10:34:30;;;;;;;30.60;5.20;;;;;;;26.74;37.96;99635.58;109060;1277;23515;-60
2022/08/23 10:37:34;;;;;;;27.80;5.50;;;;;;;26.68;37.36;99638.46;109027;1277;22403;-60
2022/08/23 10:40:16;;;;;;;26.00;5.80;;;;;;;26.64;37.25;99643.73;109132;1277;22431;-59
2022/08/23 10:42:49;;;;;;;18.80;4.50;;;;;;;26.62;36.24;99642.55;109108;1277;22364;-60
2022/08/23 10:45:31;;;;;;;23.60;5.50;;;;;;;26.62;36.25;99639.42;108949;1277;138366;-60
2022/08/23 10:48:08;;;;;;;19.80;3.60;;;;;;;26.62;36.70;99633.45;109040;1277;22450;-60
2022/08/23 10:50:43;;;;;;;27.70;5.10;;;;;;;26.61;36.03;99631.84;108853;1277;138187;-61
2022/08/23 10:53:21;;;;;;;18.20;4.80;;;;;;;26.63;35.97;99631.96;108869;1275;22589;-60
2022/08/23 10:56:05;;;;;;;12.50;4.10;;;;;;;26.66;36.32;99633.62;108808;1275;138328;-60
2022/08/23 10:58:52;;;;;;;28.70;5.30;;;;;;;26.67;36.23;99632.15;109016;1277;22527;-60
2022/08/23 11:01:49;;;;;;;16.40;3.00;;;;;;;26.68;35.37;99627.39;109000;1276;22479;-60
2022/08/23 11:04:42;;;;;;;17.40;4.10;;;;;;;26.71;35.03;99633.34;108311;1283;23176;-60
2022/08/23 11:07:17;;;;;;;16.90;4.30;;;;;;;26.76;34.51;99631.45;108389;1284;22593;-61
2022/08/23 11:09:57;;;;;;;16.30;3.70;;;;;;;26.79;34.01;99636.18;107964;1286;137497;-61
2022/08/23 11:12:27;;;;;;;18.70;4.10;;;;;;;26.84;33.78;99633.49;108468;1284;22612;-61
2022/08/23 11:15:07;;;;;;;20.00;4.10;;;;;;;26.87;33.79;99635.38;108033;1284;137622;-60
2022/08/23 11:17:50;;;;;;;8.80;3.70;;;;;;;26.87;34.02;99638.59;108370;1284;22384;-60
2022/08/23 11:20:48;;;;;;;26.90;4.10;;;;;;;26.87;33.90;99633.30;108117;1286;138129;-59
2022/08/23 11:23:47;;;;;;;14.50;3.70;;;;;;;26.85;33.76;99633.43;108432;1284;22456;-59
2022/08/23 11:26:21;;;;;;;19.00;3.70;;;;;;;26.84;33.37;99632.69;108175;1286;138317;-59
2022/08/23 11:28:54;;;;;;;16.20;4.20;;;;;;;26.86;33.80;99628.72;108291;1285;22600;-59
2022/08/23 11:31:28;;;;;;;14.10;4.00;;;;;;;26.86;34.06;99629.60;108233;1284;22498;-59
2022/08/23 11:34:05;;;;;;;22.10;3.90;;;;;;;26.86;33.91;99632.01;108343;1284;22537;-59
2022/08/23 11:36:33;;;;;;;10.00;3.60;;;;;;;26.85;33.34;99631.02;108378;1284;22432;-59
2022/08/23 11:39:04;;;;;;;14.40;3.80;;;;;;;26.86;33.48;99630.73;108247;1284;137780;-59
2022/08/23 11:41:35;;;;;;;10.50;3.90;;;;;;;26.89;33.15;99627.21;108749;1277;22621;-59
2022/08/23 11:44:02;;;;;;;14.80;3.90;;;;;;;26.91;33.53;99629.09;108943;1277;139453;-59
2022/08/23 11:46:47;;;;;;;11.20;3.30;;;;;;;26.91;33.56;99628.08;106648;1278;24221;-59
2022/08/23 11:49:27;;;;;;;16.80;3.90;;;;;;;26.92;33.62;99624.83;104857;1277;24306;-59
2022/08/23 11:52:16;;;;;;;15.00;4.50;;;;;;;26.93;34.12;99619.99;104759;1278;23912;-58
2022/08/23 11:55:21;;;;;;;23.40;3.70;;;;;;;26.92;34.35;99622.82;104643;1278;26820;-59
2022/08/23 11:57:53;;;;;;;11.20;3.00;;;;;;;26.91;34.81;99619.66;104715;1277;137306;-58